createdAt,value
2018-10-03T00:02:14.309Z,12.68
2018-10-03T00:04:41.881Z,12.84
2018-10-03T00:07:09.417Z,12.62
2018-10-03T00:09:36.969Z,12.73
2018-10-03T00:12:04.479Z,12.75
2018-10-03T00:14:32.100Z,12.71
2018-10-03T00:16:59.626Z,12.93
2018-10-03T00:19:27.207Z,12.96
2018-10-03T00:21:54.747Z,12.79
2018-10-03T00:24:22.301Z,12.84
2018-10-03T00:26:49.862Z,12.81
2018-10-03T00:29:17.389Z,12.88
2018-10-03T00:31:44.943Z,12.83
2018-10-03T00:34:12.472Z,12.83
2018-10-03T00:36:40.011Z,12.86
2018-10-03T00:39:07.837Z,13.01
2018-10-03T00:41:35.407Z,13.03
2018-10-03T00:44:02.957Z,12.89
2018-10-03T00:46:30.529Z,12.98
2018-10-03T00:48:58.077Z,12.47
2018-10-03T00:51:25.858Z,12.85
2018-10-03T00:53:53.434Z,12.72
2018-10-03T00:56:20.969Z,12.81
2018-10-03T00:58:48.634Z,12.68
2018-10-03T01:01:16.144Z,12.72
2018-10-03T01:03:43.661Z,12.71
2018-10-03T01:06:11.268Z,12.70
2018-10-03T01:08:38.795Z,12.91
2018-10-03T01:11:06.385Z,12.67
2018-10-03T01:13:33.922Z,12.83
2018-10-03T01:16:01.696Z,12.98
2018-10-03T01:18:29.273Z,12.96
2018-10-03T01:20:56.830Z,12.73
2018-10-03T01:23:24.356Z,12.82
2018-10-03T01:25:51.920Z,12.77
2018-10-03T01:28:19.472Z,12.79
2018-10-03T01:30:47.040Z,12.90
2018-10-03T01:33:14.584Z,12.79
2018-10-03T01:35:42.283Z,12.64
2018-10-03T01:38:09.872Z,12.63
2018-10-03T01:40:37.387Z,12.79
2018-10-03T01:43:04.923Z,12.50
2018-10-03T01:45:32.434Z,12.58
2018-10-03T01:47:59.996Z,12.62
2018-10-03T01:50:27.565Z,12.63
2018-10-03T01:52:55.120Z,12.74
2018-10-03T01:55:22.655Z,12.58
2018-10-03T01:57:50.297Z,12.71
2018-10-03T02:00:17.981Z,12.38
2018-10-03T02:02:45.584Z,12.46
2018-10-03T02:05:13.286Z,12.51
2018-10-03T02:07:40.969Z,12.61
2018-10-03T02:10:09.096Z,12.61
2018-10-03T02:12:37.163Z,12.55
2018-10-03T02:15:05.881Z,12.61
2018-10-03T02:17:33.882Z,12.46
2018-10-03T02:20:01.906Z,12.40
2018-10-03T02:22:29.814Z,12.60
2018-10-03T02:24:57.747Z,12.38
2018-10-03T02:27:25.396Z,12.38
2018-10-03T02:29:53.439Z,12.58
2018-10-03T02:32:21.611Z,12.48
2018-10-03T02:34:49.623Z,12.45
2018-10-03T02:37:17.707Z,12.52
2018-10-03T02:39:45.662Z,12.55
2018-10-03T02:42:13.527Z,12.46
2018-10-03T02:44:41.105Z,12.66
2018-10-03T02:47:08.685Z,12.73
2018-10-03T02:49:36.192Z,12.81
2018-10-03T02:52:03.776Z,12.42
2018-10-03T02:54:31.301Z,12.42
2018-10-03T02:56:58.859Z,12.54
2018-10-03T02:59:26.378Z,12.71
2018-10-03T03:01:54.023Z,12.36
2018-10-03T03:04:21.547Z,12.59
2018-10-03T03:06:49.071Z,12.54
2018-10-03T03:09:16.914Z,12.45
2018-10-03T03:11:44.501Z,12.51
2018-10-03T03:14:12.052Z,12.41
2018-10-03T03:16:39.594Z,12.53
2018-10-03T03:19:07.204Z,12.42
2018-10-03T03:21:34.721Z,12.29
2018-10-03T03:24:02.391Z,12.44
2018-10-03T03:26:29.921Z,12.33
2018-10-03T03:28:57.480Z,12.55
2018-10-03T03:31:25.064Z,12.47
2018-10-03T03:33:52.593Z,12.50
2018-10-03T03:36:21.072Z,12.31
2018-10-03T03:38:48.586Z,12.43
2018-10-03T03:41:16.150Z,12.34
2018-10-03T03:43:43.680Z,12.33
2018-10-03T03:46:11.254Z,12.20
2018-10-03T03:48:38.769Z,12.42
2018-10-03T03:51:06.368Z,12.19
2018-10-03T03:53:33.887Z,12.43
2018-10-03T03:56:01.466Z,12.34
2018-10-03T03:58:28.999Z,12.17
2018-10-03T04:00:56.587Z,12.29
2018-10-03T04:03:24.112Z,12.17
2018-10-03T04:05:51.738Z,12.29
2018-10-03T04:08:19.304Z,12.12
2018-10-03T04:10:46.845Z,12.27
2018-10-03T04:13:14.435Z,12.20
2018-10-03T04:15:41.946Z,12.32
2018-10-03T04:18:09.480Z,12.34
2018-10-03T04:20:37.030Z,12.39
2018-10-03T04:23:04.579Z,12.51
2018-10-03T04:25:32.110Z,12.40
2018-10-03T04:27:59.685Z,12.39
2018-10-03T04:30:27.251Z,12.27
2018-10-03T04:32:54.779Z,12.52
2018-10-03T04:35:22.401Z,12.25
2018-10-03T04:37:49.965Z,12.36
2018-10-03T04:40:17.534Z,12.14
2018-10-03T04:42:45.148Z,12.30
2018-10-03T04:45:12.651Z,12.43
2018-10-03T04:47:40.235Z,12.40
2018-10-03T04:50:07.756Z,12.35
2018-10-03T04:52:35.359Z,12.24
2018-10-03T04:55:02.880Z,12.14
2018-10-03T04:57:30.461Z,12.07
2018-10-03T04:59:58.015Z,12.22
2018-10-03T05:02:25.589Z,12.32
2018-10-03T05:04:53.172Z,12.22
2018-10-03T05:07:20.749Z,12.34
2018-10-03T05:09:48.327Z,12.38
2018-10-03T05:12:15.909Z,12.34
2018-10-03T05:14:43.470Z,12.31
2018-10-03T05:17:11.025Z,12.21
2018-10-03T05:19:38.597Z,12.24
2018-10-03T05:22:06.339Z,12.19
2018-10-03T05:24:33.859Z,12.01
2018-10-03T05:27:01.440Z,12.17
2018-10-03T05:29:29.062Z,12.13
2018-10-03T05:31:56.676Z,12.26
2018-10-03T05:34:24.293Z,12.39
2018-10-03T05:36:51.893Z,12.05
2018-10-03T05:39:19.479Z,12.08
2018-10-03T05:41:47.057Z,12.11
2018-10-03T05:44:14.715Z,11.99
2018-10-03T05:46:42.328Z,11.99
2018-10-03T05:49:09.891Z,12.09
2018-10-03T05:51:37.467Z,12.05
2018-10-03T05:54:05.078Z,12.06
2018-10-03T05:56:32.682Z,11.97
2018-10-03T05:59:00.351Z,12.01
2018-10-03T06:01:27.912Z,11.79
2018-10-03T06:03:55.494Z,12.00
2018-10-03T06:06:23.953Z,11.98
2018-10-03T06:08:51.526Z,12.01
2018-10-03T06:11:19.082Z,11.88
2018-10-03T06:13:46.659Z,11.95
2018-10-03T06:16:14.241Z,12.14
2018-10-03T06:18:41.839Z,12.24
2018-10-03T06:21:09.426Z,11.82
2018-10-03T06:23:37.019Z,11.76
2018-10-03T06:26:04.579Z,11.87
2018-10-03T06:28:32.109Z,12.01
2018-10-03T06:30:59.651Z,11.95
2018-10-03T06:33:27.304Z,12.12
2018-10-03T06:35:54.835Z,12.08
2018-10-03T06:38:22.397Z,12.06
2018-10-03T06:40:49.926Z,12.37
2018-10-03T06:43:17.478Z,12.22
2018-10-03T06:45:45.078Z,12.04
2018-10-03T06:48:12.635Z,12.02
2018-10-03T06:50:40.160Z,11.99
2018-10-03T06:53:07.675Z,11.94
2018-10-03T06:55:35.254Z,11.82
2018-10-03T06:58:02.825Z,11.83
2018-10-03T07:00:30.379Z,11.96
2018-10-03T07:02:57.931Z,12.14
2018-10-03T07:05:25.495Z,12.07
2018-10-03T07:07:53.066Z,12.14
2018-10-03T07:10:20.770Z,12.08
2018-10-03T07:12:48.342Z,12.13
2018-10-03T07:15:15.908Z,12.11
2018-10-03T07:17:43.436Z,12.24
2018-10-03T07:20:11.149Z,12.02
2018-10-03T07:22:38.701Z,12.30
2018-10-03T07:25:06.273Z,12.10
2018-10-03T07:27:33.844Z,12.31
2018-10-03T07:30:01.386Z,12.19
2018-10-03T07:32:29.045Z,12.13
2018-10-03T07:34:56.750Z,12.29
2018-10-03T07:37:24.282Z,12.47
2018-10-03T07:39:52.045Z,12.24
2018-10-03T07:42:19.580Z,12.38
2018-10-03T07:44:47.126Z,12.46
2018-10-03T07:47:14.672Z,12.51
2018-10-03T07:49:42.234Z,12.59
2018-10-03T07:52:09.879Z,12.38
2018-10-03T07:54:37.550Z,12.20
2018-10-03T07:57:05.166Z,12.43
2018-10-03T07:59:32.744Z,12.47
2018-10-03T08:02:00.301Z,12.58
2018-10-03T08:04:28.156Z,12.59
2018-10-03T08:06:55.943Z,12.58
2018-10-03T08:09:23.521Z,12.61
2018-10-03T08:11:51.083Z,12.55
2018-10-03T08:14:18.621Z,12.33
2018-10-03T08:16:46.242Z,12.38
2018-10-03T08:19:13.797Z,12.35
2018-10-03T08:21:41.593Z,12.24
2018-10-03T08:24:09.330Z,12.50
2018-10-03T08:26:36.900Z,12.47
2018-10-03T08:29:04.541Z,12.65
2018-10-03T08:31:32.113Z,12.38
2018-10-03T08:33:59.658Z,12.52
2018-10-03T08:36:27.223Z,12.71
2018-10-03T08:38:54.774Z,12.50
2018-10-03T08:41:22.367Z,12.66
2018-10-03T08:43:49.913Z,12.78
2018-10-03T08:46:17.490Z,12.80
2018-10-03T08:48:45.071Z,12.96
2018-10-03T08:51:12.645Z,13.08
2018-10-03T08:53:40.173Z,13.01
2018-10-03T08:56:07.750Z,13.05
2018-10-03T08:58:35.465Z,12.79
2018-10-03T09:01:02.857Z,12.91
2018-10-03T09:03:30.436Z,13.14
2018-10-03T09:05:58.115Z,13.24
2018-10-03T09:08:25.874Z,13.21
2018-10-03T09:10:53.461Z,13.03
2018-10-03T09:13:20.970Z,13.10
2018-10-03T09:15:48.523Z,13.10
2018-10-03T09:18:16.118Z,13.02
2018-10-03T09:20:43.657Z,13.26
2018-10-03T09:23:11.238Z,13.33
2018-10-03T09:25:38.769Z,13.42
2018-10-03T09:28:06.337Z,13.49
2018-10-03T09:30:33.921Z,13.52
2018-10-03T09:33:01.457Z,13.68
2018-10-03T09:35:28.980Z,13.61
2018-10-03T09:37:56.553Z,13.61
2018-10-03T09:40:24.104Z,13.74
2018-10-03T09:42:51.680Z,13.57
2018-10-03T09:45:19.224Z,13.49
2018-10-03T09:47:46.930Z,13.58
2018-10-03T09:50:14.474Z,13.71
2018-10-03T09:52:42.003Z,13.75
2018-10-03T09:55:09.639Z,13.69
2018-10-03T09:57:37.149Z,13.58
2018-10-03T10:00:04.724Z,13.58
2018-10-03T10:02:32.261Z,13.83
2018-10-03T10:04:59.835Z,13.94
2018-10-03T10:07:27.364Z,13.95
2018-10-03T10:09:54.944Z,14.14
2018-10-03T10:12:22.543Z,14.18
2018-10-03T10:14:50.215Z,14.23
2018-10-03T10:17:17.773Z,14.22
2018-10-03T10:19:45.314Z,14.12
2018-10-03T10:22:12.943Z,14.14
2018-10-03T10:24:40.485Z,13.93
2018-10-03T10:27:08.077Z,13.91
2018-10-03T10:29:35.593Z,14.12
2018-10-03T10:32:03.402Z,14.08
2018-10-03T10:34:30.946Z,14.09
2018-10-03T10:36:58.477Z,14.17
2018-10-03T10:39:26.048Z,13.95
2018-10-03T10:41:53.774Z,14.26
2018-10-03T10:44:21.362Z,14.19
2018-10-03T10:46:49.019Z,14.32
2018-10-03T10:49:16.513Z,14.12
2018-10-03T10:51:44.089Z,14.22
2018-10-03T10:54:11.723Z,14.24
2018-10-03T10:56:39.258Z,14.00
2018-10-03T10:59:06.844Z,14.05
2018-10-03T11:01:34.440Z,14.28
2018-10-03T11:04:02.132Z,14.23
2018-10-03T11:06:29.723Z,14.20
2018-10-03T11:08:57.257Z,14.32
2018-10-03T11:11:24.833Z,14.31
2018-10-03T11:13:52.483Z,14.03
2018-10-03T11:16:21.065Z,13.98
2018-10-03T11:18:48.663Z,14.34
2018-10-03T11:21:16.195Z,14.10
2018-10-03T11:23:44.029Z,13.98
2018-10-03T11:26:11.385Z,13.85
2018-10-03T11:28:38.978Z,14.10
2018-10-03T11:31:06.585Z,14.02
2018-10-03T11:33:34.165Z,13.96
2018-10-03T11:36:01.718Z,13.99
2018-10-03T11:38:29.259Z,13.91
2018-10-03T11:40:56.803Z,14.18
2018-10-03T11:43:24.395Z,14.01
2018-10-03T11:45:51.973Z,14.20
2018-10-03T11:48:19.527Z,14.04
2018-10-03T11:50:47.114Z,14.05
2018-10-03T11:53:14.746Z,14.11
2018-10-03T11:55:42.340Z,13.90
2018-10-03T11:58:09.877Z,13.95
2018-10-03T12:00:37.482Z,14.24
2018-10-03T12:03:05.224Z,14.34
2018-10-03T12:05:32.677Z,14.45
2018-10-03T12:08:00.219Z,14.69
2018-10-03T12:10:27.786Z,14.82
2018-10-03T12:12:55.310Z,14.90
2018-10-03T12:15:22.877Z,15.04
2018-10-03T12:17:50.430Z,15.05
2018-10-03T12:20:18.022Z,15.21
2018-10-03T12:22:45.615Z,15.37
2018-10-03T12:25:13.176Z,15.27
2018-10-03T12:27:40.714Z,15.15
2018-10-03T12:30:08.299Z,15.02
2018-10-03T12:32:35.933Z,14.80
2018-10-03T12:35:03.504Z,14.69
2018-10-03T12:37:31.108Z,14.67
2018-10-03T12:39:58.931Z,14.80
2018-10-03T12:42:26.509Z,15.08
2018-10-03T12:44:54.151Z,14.86
2018-10-03T12:47:21.697Z,15.22
2018-10-03T12:49:49.393Z,15.17
2018-10-03T12:52:16.907Z,15.27
2018-10-03T12:54:44.606Z,15.41
2018-10-03T12:57:12.084Z,15.53
2018-10-03T12:59:39.674Z,15.75
2018-10-03T13:02:07.244Z,15.98
2018-10-03T13:04:34.831Z,15.85
2018-10-03T13:07:02.378Z,15.89
2018-10-03T13:09:29.948Z,15.89
2018-10-03T13:11:57.485Z,15.53
2018-10-03T13:14:25.193Z,15.84
2018-10-03T13:16:52.741Z,16.00
2018-10-03T13:19:20.299Z,15.87
2018-10-03T13:21:48.074Z,16.07
2018-10-03T13:24:16.112Z,15.49
2018-10-03T13:26:43.749Z,15.36
2018-10-03T13:29:11.629Z,15.56
2018-10-03T13:31:39.250Z,15.67
2018-10-03T13:34:06.820Z,15.58
2018-10-03T13:36:34.397Z,15.18
2018-10-03T13:39:01.926Z,15.37
2018-10-03T13:41:29.530Z,15.39
2018-10-03T13:43:57.277Z,15.06
2018-10-03T13:46:24.925Z,15.21
2018-10-03T13:48:52.541Z,15.22
2018-10-03T13:51:20.106Z,15.07
2018-10-03T13:53:47.637Z,15.22
2018-10-03T13:56:15.188Z,15.39
2018-10-03T13:58:42.791Z,15.21
2018-10-03T14:01:10.338Z,15.46
2018-10-03T14:03:37.917Z,15.66
2018-10-03T14:06:05.498Z,15.83
2018-10-03T14:08:33.301Z,15.80
2018-10-03T14:11:00.903Z,15.78
2018-10-03T14:13:28.455Z,15.62
2018-10-03T14:15:55.993Z,15.58
2018-10-03T14:18:23.679Z,15.66
2018-10-03T14:20:51.408Z,15.64
2018-10-03T14:23:18.972Z,15.76
2018-10-03T14:25:46.675Z,15.68
2018-10-03T14:28:14.263Z,15.76
2018-10-03T14:30:42.046Z,15.60
2018-10-03T14:33:09.744Z,15.30
2018-10-03T14:35:37.398Z,15.17
2018-10-03T14:38:05.090Z,15.22
2018-10-03T14:40:32.655Z,14.95
2018-10-03T14:43:00.211Z,15.06
2018-10-03T14:45:27.940Z,15.15
2018-10-03T14:47:55.494Z,15.22
2018-10-03T14:50:23.027Z,15.28
2018-10-03T14:52:50.611Z,15.39
2018-10-03T14:55:18.341Z,15.23
2018-10-03T14:57:45.908Z,15.11
2018-10-03T15:00:13.519Z,15.29
2018-10-03T15:02:41.081Z,15.21
2018-10-03T15:05:08.784Z,15.45
2018-10-03T15:07:36.371Z,15.22
2018-10-03T15:10:03.932Z,15.31
2018-10-03T15:12:31.557Z,15.32
2018-10-03T15:14:59.124Z,15.04
2018-10-03T15:17:26.798Z,15.16
2018-10-03T15:19:54.319Z,15.19
2018-10-03T15:22:21.981Z,15.15
2018-10-03T15:24:49.529Z,15.18
2018-10-03T15:27:17.047Z,15.24
2018-10-03T15:29:44.787Z,15.47
2018-10-03T15:32:12.378Z,15.45
2018-10-03T15:34:39.904Z,15.30
2018-10-03T15:37:07.489Z,15.38
2018-10-03T15:39:35.088Z,15.43
2018-10-03T15:42:02.662Z,15.40
2018-10-03T15:44:30.175Z,15.22
2018-10-03T15:46:57.766Z,15.39
2018-10-03T15:49:25.601Z,15.28
2018-10-03T15:51:53.483Z,15.39
2018-10-03T15:54:21.132Z,15.31
2018-10-03T15:56:48.694Z,15.11
2018-10-03T15:59:16.280Z,15.10
2018-10-03T16:01:43.857Z,15.32
2018-10-03T16:04:11.475Z,15.53
2018-10-03T16:06:39.448Z,15.62
2018-10-03T16:09:07.170Z,15.57
2018-10-03T16:11:34.880Z,15.36
2018-10-03T16:14:02.569Z,15.16
2018-10-03T16:16:30.213Z,15.26
2018-10-03T16:18:57.849Z,15.49
2018-10-03T16:21:25.562Z,15.33
2018-10-03T16:23:53.134Z,15.60
2018-10-03T16:26:21.531Z,15.53
2018-10-03T16:28:49.200Z,15.62
2018-10-03T16:31:17.111Z,15.68
2018-10-03T16:33:44.885Z,15.77
2018-10-03T16:36:12.666Z,15.46
2018-10-03T16:38:40.375Z,15.63
2018-10-03T16:41:08.331Z,15.19
2018-10-03T16:43:36.212Z,15.12
2018-10-03T16:46:04.023Z,15.25
2018-10-03T16:48:31.765Z,15.31
2018-10-03T16:50:59.518Z,15.49
2018-10-03T16:53:27.329Z,15.15
2018-10-03T16:55:54.942Z,14.98
2018-10-03T16:58:22.607Z,14.82
2018-10-03T17:00:50.316Z,14.82
2018-10-03T17:03:18.170Z,14.70
2018-10-03T17:05:45.831Z,14.81
2018-10-03T17:08:13.435Z,14.60
2018-10-03T17:10:41.185Z,14.66
2018-10-03T17:13:08.743Z,14.59
2018-10-03T17:15:36.315Z,14.51
2018-10-03T17:18:03.834Z,14.71
2018-10-03T17:20:31.416Z,14.87
2018-10-03T17:22:58.953Z,14.63
2018-10-03T17:25:26.607Z,14.29
2018-10-03T17:27:54.142Z,14.44
2018-10-03T17:30:21.713Z,14.05
2018-10-03T17:32:49.277Z,14.08
2018-10-03T17:35:17.074Z,14.19
2018-10-03T17:37:44.776Z,14.04
2018-10-03T17:40:12.287Z,14.02
2018-10-03T17:42:40.053Z,14.00
2018-10-03T17:45:07.596Z,13.92
2018-10-03T17:47:35.129Z,14.05
2018-10-03T17:50:02.710Z,13.75
2018-10-03T17:52:30.502Z,13.96
2018-10-03T17:54:58.045Z,13.74
2018-10-03T17:57:25.727Z,13.84
2018-10-03T17:59:53.618Z,13.46
2018-10-03T18:02:21.244Z,13.50
2018-10-03T18:04:49.121Z,13.70
2018-10-03T18:07:16.705Z,13.71
2018-10-03T18:09:44.273Z,13.69
2018-10-03T18:12:12.015Z,13.47
2018-10-03T18:14:39.762Z,13.38
2018-10-03T18:17:07.531Z,13.55
2018-10-03T18:19:35.334Z,13.28
2018-10-03T18:22:03.014Z,13.33
2018-10-03T18:24:30.526Z,13.33
2018-10-03T18:26:58.197Z,13.43
2018-10-03T18:29:25.737Z,13.18
2018-10-03T18:31:53.262Z,13.16
2018-10-03T18:34:21.125Z,13.07
2018-10-03T18:36:48.821Z,13.09
2018-10-03T18:39:16.430Z,12.99
2018-10-03T18:41:43.951Z,13.03
2018-10-03T18:44:11.526Z,12.92
2018-10-03T18:46:39.129Z,12.78
2018-10-03T18:49:06.635Z,12.71
2018-10-03T18:51:34.221Z,12.76
2018-10-03T18:54:01.836Z,12.78
2018-10-03T18:56:29.418Z,12.77
2018-10-03T18:58:56.946Z,12.70
2018-10-03T19:01:24.487Z,12.60
2018-10-03T19:03:52.077Z,12.70
2018-10-03T19:06:19.797Z,12.58
2018-10-03T19:08:47.403Z,12.71
2018-10-03T19:11:14.987Z,12.65
2018-10-03T19:13:42.525Z,12.73
2018-10-03T19:16:10.122Z,12.77
2018-10-03T19:18:37.658Z,12.87
2018-10-03T19:21:05.181Z,12.76
2018-10-03T19:23:32.949Z,12.81
2018-10-03T19:26:00.540Z,12.80
2018-10-03T19:28:28.171Z,12.85
2018-10-03T19:30:55.758Z,12.99
2018-10-03T19:33:23.399Z,12.81
2018-10-03T19:35:51.233Z,12.86
2018-10-03T19:38:18.734Z,12.73
2018-10-03T19:40:46.373Z,13.07
2018-10-03T19:43:14.086Z,13.16
2018-10-03T19:45:41.767Z,13.28
2018-10-03T19:48:09.416Z,13.24
2018-10-03T19:50:36.911Z,13.09
2018-10-03T19:53:04.463Z,13.19
2018-10-03T19:55:32.005Z,13.34
2018-10-03T19:57:59.572Z,13.22
2018-10-03T20:00:27.130Z,13.12
2018-10-03T20:02:54.683Z,12.95
2018-10-03T20:05:22.274Z,12.80
2018-10-03T20:07:49.841Z,12.94
2018-10-03T20:10:17.393Z,12.70
2018-10-03T20:12:44.996Z,12.43
2018-10-03T20:15:12.624Z,12.34
2018-10-03T20:17:40.221Z,12.17
2018-10-03T20:20:07.812Z,12.34
2018-10-03T20:22:35.350Z,12.02
2018-10-03T20:25:02.963Z,12.14
2018-10-03T20:27:30.635Z,12.13
2018-10-03T20:29:58.143Z,12.23
2018-10-03T20:32:25.678Z,12.14
2018-10-03T20:34:53.281Z,12.11
2018-10-03T20:37:20.971Z,12.05
2018-10-03T20:39:48.535Z,11.77
2018-10-03T20:42:17.345Z,11.86
2018-10-03T20:44:44.880Z,11.91
2018-10-03T20:47:12.534Z,11.93
2018-10-03T20:49:40.077Z,11.69
2018-10-03T20:52:07.636Z,11.71
2018-10-03T20:54:35.251Z,11.54
2018-10-03T20:57:02.820Z,11.84
2018-10-03T20:59:30.430Z,11.73
2018-10-03T21:01:57.973Z,11.54
2018-10-03T21:04:25.584Z,11.78
2018-10-03T21:06:56.438Z,11.61
2018-10-03T21:09:24.224Z,11.75
2018-10-03T21:11:51.798Z,11.70
2018-10-03T21:14:19.441Z,11.68
2018-10-03T21:16:47.022Z,11.79
2018-10-03T21:19:14.764Z,11.84
2018-10-03T21:21:42.341Z,11.93
2018-10-03T21:24:10.149Z,12.07
2018-10-03T21:26:38.012Z,11.90
2018-10-03T21:29:05.615Z,12.05
2018-10-03T21:31:33.395Z,12.01
2018-10-03T21:34:00.993Z,12.08
2018-10-03T21:36:28.582Z,11.91
2018-10-03T21:38:56.307Z,11.96
2018-10-03T21:41:24.048Z,12.14
2018-10-03T21:43:51.744Z,12.12
2018-10-03T21:46:19.387Z,12.17
2018-10-03T21:48:46.964Z,12.18
2018-10-03T21:51:14.547Z,12.02
2018-10-03T21:53:42.110Z,11.85
2018-10-03T21:56:09.669Z,12.01
2018-10-03T21:58:37.308Z,11.89
2018-10-03T22:01:05.018Z,12.03
2018-10-03T22:03:32.588Z,11.89
2018-10-03T22:06:00.159Z,11.99
2018-10-03T22:08:27.724Z,11.97
2018-10-03T22:10:55.477Z,11.93
2018-10-03T22:13:23.067Z,11.93
2018-10-03T22:15:50.581Z,12.02
2018-10-03T22:18:18.216Z,12.10
2018-10-03T22:20:47.135Z,12.05
2018-10-03T22:23:14.718Z,11.95
2018-10-03T22:25:42.391Z,11.83
2018-10-03T22:28:09.944Z,12.01
2018-10-03T22:30:37.845Z,11.95
2018-10-03T22:33:05.446Z,11.77
2018-10-03T22:35:33.339Z,11.63
2018-10-03T22:38:00.964Z,11.68
2018-10-03T22:40:28.889Z,11.60
2018-10-03T22:42:56.489Z,11.58
2018-10-03T22:45:24.839Z,11.47
2018-10-03T22:47:52.532Z,11.53
2018-10-03T22:50:20.964Z,11.58
2018-10-03T22:52:48.803Z,11.56
2018-10-03T22:55:16.410Z,11.48
2018-10-03T22:57:44.084Z,11.49
2018-10-03T23:00:11.853Z,11.59
2018-10-03T23:02:39.639Z,11.62
2018-10-03T23:05:07.212Z,11.56
2018-10-03T23:07:34.777Z,11.67
2018-10-03T23:10:02.345Z,11.48
2018-10-03T23:12:29.885Z,11.60
2018-10-03T23:14:57.476Z,11.52
2018-10-03T23:17:25.041Z,11.44
2018-10-03T23:19:52.578Z,11.56
2018-10-03T23:22:21.059Z,11.38
2018-10-03T23:24:48.620Z,11.54
2018-10-03T23:27:16.273Z,11.23
2018-10-03T23:29:43.866Z,11.40
2018-10-03T23:32:11.404Z,11.24
2018-10-03T23:34:39.007Z,11.30
2018-10-03T23:37:06.537Z,11.21
2018-10-03T23:39:34.116Z,11.35
2018-10-03T23:42:01.829Z,11.15
2018-10-03T23:44:29.327Z,10.99
2018-10-03T23:46:56.928Z,10.92
2018-10-03T23:49:24.592Z,10.96
2018-10-03T23:51:52.158Z,10.90
2018-10-03T23:54:19.718Z,10.67
2018-10-03T23:56:47.286Z,10.54
2018-10-03T23:59:14.836Z,10.75
